createdAt,value
2022-11-02T00:02:28.289Z,4.47
2022-11-02T00:05:31.129Z,8.63
2022-11-02T00:08:33.904Z,7.90
2022-11-02T00:11:38.305Z,5.45
2022-11-02T00:14:40.957Z,4.57
2022-11-02T00:17:45.709Z,4.97
2022-11-02T00:20:48.387Z,6.13
2022-11-02T00:23:51.418Z,7.03
2022-11-02T00:26:55.607Z,8.40
2022-11-02T00:29:58.278Z,4.40
2022-11-02T00:33:01.144Z,4.33
2022-11-02T00:36:04.032Z,9.65
2022-11-02T00:39:06.675Z,4.80
2022-11-02T00:42:11.228Z,7.67
2022-11-02T00:45:13.935Z,6.20
2022-11-02T00:48:16.533Z,7.90
2022-11-02T00:51:19.093Z,4.43
2022-11-02T00:54:25.893Z,6.73
2022-11-02T00:57:32.401Z,6.53
2022-11-02T01:00:35.326Z,8.07
2022-11-02T01:03:37.961Z,12.63
2022-11-02T01:06:40.550Z,11.67
2022-11-02T01:09:43.258Z,6.70
2022-11-02T01:12:47.213Z,9.80
2022-11-02T01:15:49.853Z,8.77
2022-11-02T01:18:53.937Z,5.97
2022-11-02T01:21:56.586Z,6.67
2022-11-02T01:24:59.204Z,6.00
2022-11-02T01:28:03.178Z,7.83
2022-11-02T01:31:06.615Z,8.57
2022-11-02T01:34:09.268Z,11.18
2022-11-02T01:37:11.973Z,6.70
2022-11-02T01:40:14.915Z,3.22
2022-11-02T01:43:23.462Z,7.90
2022-11-02T01:46:36.522Z,3.10
2022-11-02T01:49:40.508Z,6.57
2022-11-02T01:52:43.134Z,5.17
2022-11-02T01:55:46.020Z,5.63
2022-11-02T01:58:55.020Z,7.38
2022-11-02T02:01:57.750Z,4.10
2022-11-02T02:05:04.301Z,4.18
2022-11-02T02:08:08.212Z,8.07
2022-11-02T02:11:28.077Z,6.40
2022-11-02T02:14:32.071Z,6.17
2022-11-02T02:17:42.259Z,7.60
2022-11-02T02:20:58.503Z,9.37
2022-11-02T02:24:26.940Z,7.97
2022-11-02T02:27:32.614Z,6.43
2022-11-02T02:30:39.925Z,8.93
2022-11-02T02:33:45.902Z,12.87
2022-11-02T02:36:52.161Z,7.97
2022-11-02T02:39:59.142Z,7.93
2022-11-02T02:43:06.051Z,9.10
2022-11-02T02:46:14.201Z,5.40
2022-11-02T02:49:22.659Z,7.83
2022-11-02T02:52:28.223Z,10.90
2022-11-02T02:55:35.488Z,9.80
2022-11-02T02:58:40.278Z,7.77
2022-11-02T03:01:45.257Z,4.97
2022-11-02T03:04:47.966Z,6.40
2022-11-02T03:07:51.060Z,6.27
2022-11-02T03:10:57.802Z,7.53
2022-11-02T03:14:08.995Z,9.50
2022-11-02T03:17:16.909Z,4.77
2022-11-02T03:20:24.696Z,9.43
2022-11-02T03:23:31.560Z,6.07
2022-11-02T03:26:40.348Z,6.13
2022-11-02T03:29:45.789Z,9.83
2022-11-02T03:32:54.359Z,6.20
2022-11-02T03:35:59.606Z,6.90
2022-11-02T03:39:06.220Z,7.53
2022-11-02T03:42:12.180Z,12.07
2022-11-02T03:45:17.234Z,9.53
2022-11-02T03:48:22.831Z,6.83
2022-11-02T03:51:26.967Z,9.43
2022-11-02T03:54:36.700Z,11.93
2022-11-02T03:57:44.315Z,7.90
2022-11-02T04:00:48.920Z,8.73
2022-11-02T04:03:52.963Z,6.13
2022-11-02T04:06:55.629Z,8.60
2022-11-02T04:09:58.198Z,10.43
2022-11-02T04:13:18.584Z,13.97
2022-11-02T04:16:27.606Z,8.20
2022-11-02T04:19:31.115Z,11.93
2022-11-02T04:22:51.484Z,9.27
2022-11-02T04:25:55.046Z,7.47
2022-11-02T04:28:57.672Z,11.25
2022-11-02T04:32:00.270Z,12.80
2022-11-02T04:35:03.475Z,8.07
2022-11-02T04:38:23.599Z,8.80
2022-11-02T04:41:44.529Z,10.23
2022-11-02T04:44:47.122Z,12.00
2022-11-02T04:47:49.885Z,12.67
2022-11-02T04:50:54.028Z,7.05
2022-11-02T04:53:57.443Z,7.73
2022-11-02T04:57:00.000Z,6.03
2022-11-02T05:00:02.651Z,11.67
2022-11-02T05:03:08.117Z,9.63
2022-11-02T05:06:15.843Z,6.47
2022-11-02T05:09:18.680Z,7.70
2022-11-02T05:12:24.180Z,8.45
2022-11-02T05:15:30.809Z,4.13
2022-11-02T05:18:33.682Z,4.80
2022-11-02T05:21:37.591Z,5.50
2022-11-02T05:24:40.198Z,5.10
2022-11-02T05:27:42.858Z,6.03
2022-11-02T05:30:45.494Z,4.70
2022-11-02T05:33:48.066Z,7.67
2022-11-02T05:36:52.026Z,2.73
2022-11-02T05:39:58.530Z,3.67
2022-11-02T05:43:01.451Z,4.17
2022-11-02T05:46:04.607Z,4.18
2022-11-02T05:49:07.232Z,4.88
2022-11-02T05:52:11.209Z,8.83
2022-11-02T05:55:13.886Z,4.67
2022-11-02T05:58:16.658Z,6.13
2022-11-02T06:01:19.244Z,15.57
2022-11-02T06:04:21.945Z,5.57
2022-11-02T06:07:25.964Z,4.60
2022-11-02T06:10:29.167Z,5.10
2022-11-02T06:13:31.749Z,6.68
2022-11-02T06:16:34.402Z,10.97
2022-11-02T06:19:37.240Z,7.67
2022-11-02T06:22:41.757Z,4.57
2022-11-02T06:25:44.546Z,7.50
2022-11-02T06:28:47.931Z,4.57
2022-11-02T06:31:50.487Z,15.45
2022-11-02T06:34:53.194Z,6.13
2022-11-02T06:37:57.127Z,10.20
2022-11-02T06:41:02.165Z,11.97
2022-11-02T06:44:05.192Z,7.33
2022-11-02T06:47:08.037Z,4.78
2022-11-02T06:50:11.137Z,10.77
2022-11-02T06:53:15.179Z,11.50
2022-11-02T06:56:18.387Z,14.47
2022-11-02T06:59:23.890Z,4.22
2022-11-02T07:02:26.645Z,8.73
2022-11-02T07:05:29.350Z,8.30
2022-11-02T07:08:33.340Z,5.00
2022-11-02T07:11:35.923Z,16.03
2022-11-02T07:14:38.618Z,7.63
2022-11-02T07:17:41.440Z,8.00
2022-11-02T07:20:44.010Z,3.08
2022-11-02T07:23:47.985Z,5.03
2022-11-02T07:26:50.857Z,8.17
2022-11-02T07:29:53.488Z,8.65
2022-11-02T07:32:56.191Z,6.40
2022-11-02T07:35:58.809Z,6.28
2022-11-02T07:39:02.815Z,4.63
2022-11-02T07:42:07.027Z,11.43
2022-11-02T07:45:10.332Z,5.30
2022-11-02T07:48:12.990Z,6.85
2022-11-02T07:51:15.832Z,5.68
2022-11-02T07:54:19.842Z,9.07
2022-11-02T07:57:22.475Z,7.47
2022-11-02T08:00:25.546Z,8.02
2022-11-02T08:03:28.732Z,7.97
2022-11-02T08:06:31.535Z,4.43
2022-11-02T08:09:35.608Z,11.98
2022-11-02T08:12:38.252Z,7.03
2022-11-02T08:15:41.302Z,6.13
2022-11-02T08:18:44.009Z,6.45
2022-11-02T08:21:46.613Z,5.13
2022-11-02T08:24:50.614Z,8.80
2022-11-02T08:27:53.726Z,7.90
2022-11-02T08:30:56.539Z,7.22
2022-11-02T08:33:59.614Z,14.27
2022-11-02T08:37:02.329Z,6.72
2022-11-02T08:40:07.869Z,5.45
2022-11-02T08:43:12.466Z,3.50
2022-11-02T08:46:16.460Z,5.77
2022-11-02T08:49:20.312Z,4.03
2022-11-02T08:52:23.143Z,5.55
2022-11-02T08:55:27.194Z,5.45
2022-11-02T08:58:29.996Z,3.40
2022-11-02T09:01:32.951Z,4.13
2022-11-02T09:04:35.631Z,5.50
2022-11-02T09:07:38.472Z,6.50
2022-11-02T09:10:42.863Z,3.13
2022-11-02T09:13:45.550Z,6.43
2022-11-02T09:16:48.140Z,5.25
2022-11-02T09:19:50.914Z,4.75
2022-11-02T09:22:53.709Z,9.38
2022-11-02T09:25:58.831Z,6.38
2022-11-02T09:29:01.547Z,5.90
2022-11-02T09:32:04.223Z,8.57
2022-11-02T09:35:09.409Z,2.80
2022-11-02T09:38:12.799Z,2.17
2022-11-02T09:44:27.600Z,6.20
2022-11-02T09:51:01.962Z,5.00
2022-11-02T09:54:13.064Z,5.80
2022-11-02T10:00:25.132Z,7.60
2022-11-02T10:03:36.357Z,13.40
2022-11-02T10:06:42.119Z,5.80
2022-11-02T10:09:51.192Z,4.07
2022-11-02T10:12:59.778Z,8.03
2022-11-02T10:16:06.950Z,5.47
2022-11-02T10:19:13.578Z,11.10
2022-11-02T10:22:16.936Z,9.33
2022-11-02T10:25:19.686Z,5.28
2022-11-02T10:28:27.678Z,7.25
2022-11-02T10:31:32.550Z,9.83
2022-11-02T10:34:35.541Z,8.60
2022-11-02T10:37:50.226Z,5.00
2022-11-02T10:41:06.911Z,6.60
2022-11-02T10:44:20.769Z,5.47
2022-11-02T10:47:25.571Z,8.10
2022-11-02T10:50:37.898Z,5.20
2022-11-02T10:53:43.185Z,3.43
2022-11-02T10:56:47.631Z,9.70
2022-11-02T11:00:24.817Z,8.97
2022-11-02T11:03:27.556Z,2.97
2022-11-02T11:06:32.108Z,7.75
2022-11-02T11:09:47.536Z,12.47
2022-11-02T11:12:50.276Z,8.20
2022-11-02T11:15:54.378Z,3.08
2022-11-02T11:22:28.090Z,7.27
2022-11-02T11:25:30.699Z,3.93
2022-11-02T11:28:35.809Z,3.42
2022-11-02T11:31:40.063Z,5.80
2022-11-02T11:34:44.088Z,6.47
2022-11-02T11:37:49.183Z,7.90
2022-11-02T11:40:54.429Z,1.73
2022-11-02T11:43:57.206Z,4.93
2022-11-02T11:47:01.360Z,7.45
2022-11-02T11:50:25.273Z,8.13
2022-11-02T11:53:31.573Z,5.93
2022-11-02T11:56:34.390Z,6.65
2022-11-02T11:59:46.794Z,7.90
2022-11-02T12:03:03.998Z,5.97
2022-11-02T12:06:16.596Z,4.17
2022-11-02T12:09:25.772Z,6.47
2022-11-02T12:12:35.829Z,6.27
2022-11-02T12:15:49.665Z,2.87
2022-11-02T12:19:20.086Z,5.67
2022-11-02T12:22:26.965Z,4.80
2022-11-02T12:25:40.979Z,7.70
2022-11-02T12:28:57.621Z,4.30
2022-11-02T12:32:10.111Z,5.87
2022-11-02T12:35:54.372Z,6.40
2022-11-02T12:39:08.219Z,5.72
2022-11-02T12:42:22.772Z,3.67
2022-11-02T12:45:29.954Z,5.03
2022-11-02T12:48:42.010Z,5.93
2022-11-02T12:51:51.049Z,7.47
2022-11-02T12:54:56.570Z,5.17
2022-11-02T12:58:03.109Z,3.17
2022-11-02T13:01:13.692Z,5.00
2022-11-02T13:04:24.540Z,4.83
2022-11-02T13:07:34.440Z,4.60
2022-11-02T13:10:41.178Z,5.83
2022-11-02T13:13:46.256Z,6.47
2022-11-02T13:16:52.182Z,7.23
2022-11-02T13:19:57.640Z,8.60
2022-11-02T13:23:05.849Z,8.17
2022-11-02T13:26:12.209Z,7.87
2022-11-02T13:29:20.649Z,10.63
2022-11-02T13:32:32.478Z,7.30
2022-11-02T13:35:37.638Z,2.72
2022-11-02T13:38:46.025Z,7.10
2022-11-02T13:42:13.111Z,3.13
2022-11-02T13:45:36.975Z,7.83
2022-11-02T13:51:55.463Z,7.00
2022-11-02T13:55:03.141Z,4.90
2022-11-02T13:58:06.815Z,7.47
2022-11-02T14:01:11.592Z,6.03
2022-11-02T14:04:15.913Z,5.73
2022-11-02T14:07:24.207Z,7.23
2022-11-02T14:10:29.566Z,4.47
2022-11-02T14:14:08.410Z,5.87
2022-11-02T14:17:13.431Z,12.43
2022-11-02T14:20:34.697Z,6.40
2022-11-02T14:23:39.384Z,9.30
2022-11-02T14:26:57.077Z,8.03
2022-11-02T14:30:00.211Z,10.93
2022-11-02T14:33:05.219Z,3.58
2022-11-02T14:36:11.386Z,7.13
2022-11-02T14:39:18.590Z,13.20
2022-11-02T14:42:44.116Z,10.17
2022-11-02T14:45:57.546Z,7.63
2022-11-02T14:49:02.020Z,7.28
2022-11-02T14:52:08.755Z,7.50
2022-11-02T14:55:27.505Z,5.37
2022-11-02T14:58:34.411Z,10.07
2022-11-02T15:01:49.890Z,5.67
2022-11-02T15:04:54.142Z,9.70
2022-11-02T15:07:59.935Z,4.77
2022-11-02T15:11:36.061Z,13.37
2022-11-02T15:15:00.873Z,4.27
2022-11-02T15:18:33.812Z,8.50
2022-11-02T15:21:36.566Z,7.10
2022-11-02T15:24:39.906Z,6.60
2022-11-02T15:30:48.399Z,14.20
2022-11-02T15:33:53.753Z,14.33
2022-11-02T15:36:57.123Z,9.03
2022-11-02T15:40:02.121Z,6.63
2022-11-02T15:43:11.154Z,15.07
2022-11-02T15:46:27.737Z,12.27
2022-11-02T15:49:42.463Z,10.93
2022-11-02T15:53:21.554Z,12.13
2022-11-02T15:56:33.445Z,6.93
2022-11-02T15:59:54.933Z,6.70
2022-11-02T16:03:03.995Z,10.90
2022-11-02T16:06:06.855Z,9.07
2022-11-02T16:09:30.977Z,8.63
2022-11-02T16:12:35.783Z,12.00
2022-11-02T16:15:42.254Z,8.30
2022-11-02T16:18:51.018Z,15.43
2022-11-02T16:21:58.463Z,16.77
2022-11-02T16:25:09.798Z,15.93
2022-11-02T16:28:18.783Z,13.93
2022-11-02T16:31:22.467Z,6.80
2022-11-02T16:34:28.816Z,17.37
2022-11-02T16:37:31.690Z,11.43
2022-11-02T16:40:34.389Z,11.55
2022-11-02T16:43:42.974Z,13.25
2022-11-02T16:46:53.498Z,20.27
2022-11-02T16:50:00.473Z,15.50
2022-11-02T16:53:03.328Z,10.33
2022-11-02T16:56:27.845Z,15.50
2022-11-02T16:59:30.490Z,9.23
2022-11-02T17:02:36.062Z,11.70
2022-11-02T17:05:42.871Z,10.77
2022-11-02T17:08:46.443Z,11.97
2022-11-02T17:14:52.121Z,12.30
2022-11-02T17:18:16.505Z,6.80
2022-11-02T17:21:29.235Z,9.37
2022-11-02T17:24:33.199Z,13.37
2022-11-02T17:27:39.383Z,9.13
2022-11-02T17:30:48.391Z,15.97
2022-11-02T17:33:52.029Z,12.50
2022-11-02T17:40:02.072Z,8.70
2022-11-02T17:43:04.865Z,12.33
2022-11-02T17:46:09.578Z,10.80
2022-11-02T17:49:12.181Z,11.10
2022-11-02T17:52:25.480Z,9.77
2022-11-02T17:55:29.628Z,7.75
2022-11-02T17:58:32.329Z,13.90
2022-11-02T18:01:35.144Z,19.48
2022-11-02T18:04:38.417Z,9.15
2022-11-02T18:07:42.400Z,12.50
2022-11-02T18:10:46.209Z,11.27
2022-11-02T18:13:48.822Z,9.60
2022-11-02T18:16:52.870Z,6.30
2022-11-02T18:19:55.538Z,12.83
2022-11-02T18:23:00.755Z,14.00
2022-11-02T18:26:03.357Z,15.67
2022-11-02T18:29:06.170Z,12.00
2022-11-02T18:32:08.982Z,9.93
2022-11-02T18:35:13.335Z,12.63
2022-11-02T18:38:17.382Z,9.10
2022-11-02T18:41:29.871Z,11.73
2022-11-02T18:44:32.618Z,20.93
2022-11-02T18:47:35.498Z,13.05
2022-11-02T18:50:38.313Z,9.98
2022-11-02T18:53:42.264Z,12.77
2022-11-02T18:56:44.979Z,10.70
2022-11-02T18:59:47.692Z,8.68
2022-11-02T19:02:50.309Z,15.30
2022-11-02T19:06:26.672Z,11.73
2022-11-02T19:09:31.698Z,12.90
2022-11-02T19:12:34.340Z,13.37
2022-11-02T19:15:41.394Z,15.33
2022-11-02T19:18:45.261Z,13.17
2022-11-02T19:21:48.671Z,16.90
2022-11-02T19:24:53.340Z,18.95
2022-11-02T19:27:55.936Z,13.37
2022-11-02T19:30:58.544Z,15.67
2022-11-02T19:34:01.533Z,24.00
2022-11-02T19:37:04.497Z,11.80
2022-11-02T19:40:10.040Z,18.42
2022-11-02T19:43:12.627Z,14.63
2022-11-02T19:46:16.368Z,15.47
2022-11-02T19:49:18.977Z,23.47
2022-11-02T19:52:22.370Z,47.20
2022-11-02T19:55:29.355Z,24.17
2022-11-02T19:58:32.394Z,24.00
2022-11-02T20:01:36.932Z,22.38
2022-11-02T20:04:42.591Z,14.63
2022-11-02T20:07:45.319Z,14.23
2022-11-02T20:10:49.241Z,17.53
2022-11-02T20:13:52.528Z,17.47
2022-11-02T20:17:10.840Z,15.43
2022-11-02T20:20:18.275Z,13.83
2022-11-02T20:23:21.381Z,15.00
2022-11-02T20:26:27.343Z,21.10
2022-11-02T20:29:30.539Z,22.13
2022-11-02T20:32:33.124Z,17.88
2022-11-02T20:35:35.961Z,10.10
2022-11-02T20:38:39.188Z,14.05
2022-11-02T20:41:43.198Z,14.75
2022-11-02T20:44:49.262Z,13.80
2022-11-02T20:47:51.904Z,18.30
2022-11-02T20:50:54.763Z,15.23
2022-11-02T20:53:57.417Z,12.68
2022-11-02T20:57:01.365Z,12.27
2022-11-02T21:00:05.362Z,13.70
2022-11-02T21:03:08.146Z,15.70
2022-11-02T21:06:15.780Z,12.88
2022-11-02T21:09:19.181Z,15.13
2022-11-02T21:12:41.136Z,14.45
2022-11-02T21:15:43.989Z,14.17
2022-11-02T21:18:46.849Z,15.00
2022-11-02T21:21:49.466Z,12.15
2022-11-02T21:24:52.044Z,16.70
2022-11-02T21:27:56.551Z,18.30
2022-11-02T21:31:03.365Z,13.17
2022-11-02T21:34:05.931Z,12.13
2022-11-02T21:37:08.529Z,15.50
2022-11-02T21:40:11.902Z,12.30
2022-11-02T21:43:16.142Z,15.80
2022-11-02T21:46:20.012Z,12.73
2022-11-02T21:49:22.861Z,10.40
2022-11-02T21:52:25.420Z,23.85
2022-11-02T21:55:28.037Z,24.10
2022-11-02T21:58:32.273Z,11.17
2022-11-02T22:01:49.825Z,16.60
2022-11-02T22:04:53.489Z,13.73
2022-11-02T22:08:13.678Z,11.02
2022-11-02T22:11:21.376Z,16.47
2022-11-02T22:14:25.292Z,15.10
2022-11-02T22:17:48.547Z,11.73
2022-11-02T22:20:54.761Z,15.43
2022-11-02T22:23:57.884Z,9.40
2022-11-02T22:27:00.554Z,12.52
2022-11-02T22:30:05.063Z,10.93
2022-11-02T22:33:09.160Z,8.00
2022-11-02T22:36:13.745Z,11.10
2022-11-02T22:39:16.413Z,9.37
2022-11-02T22:42:19.017Z,12.13
2022-11-02T22:45:22.912Z,12.60
2022-11-02T22:48:25.502Z,13.87
2022-11-02T22:51:30.013Z,9.80
2022-11-02T22:54:32.596Z,9.07
2022-11-02T22:57:35.150Z,7.73
2022-11-02T23:00:39.527Z,10.07
2022-11-02T23:03:42.180Z,12.63
2022-11-02T23:06:44.790Z,12.83
2022-11-02T23:09:47.402Z,11.77
2022-11-02T23:12:49.981Z,15.60
2022-11-02T23:16:14.081Z,11.43
2022-11-02T23:19:31.044Z,12.48
2022-11-02T23:22:51.627Z,11.73
2022-11-02T23:25:57.249Z,11.70
2022-11-02T23:29:17.421Z,11.27
2022-11-02T23:32:27.369Z,12.23
2022-11-02T23:35:47.637Z,14.43
2022-11-02T23:39:08.431Z,12.70
2022-11-02T23:42:11.030Z,10.10
2022-11-02T23:45:13.792Z,13.97
2022-11-02T23:48:17.773Z,10.07
2022-11-02T23:51:38.206Z,8.87
2022-11-02T23:54:58.590Z,13.43
2022-11-02T23:58:01.164Z,8.80
